Time;durP1;ratioP1;P1;durP2;ratioP2;P2;SDS_P1;SDS_P2;PMS_P1;PMS_P2;Temp;Humidity;BMP_temperature;BMP_pressure;BME280_temperature;BME280_humidity;BME280_pressure;Samples;Min_cycle;Max_cycle;Signal;HPM_P1;HPM_P2
2022/04/26 03:37:45;;;;;;;24.33;20.50;;;8.60;99.90;;;;;;5074948;28;20071;-73
2022/04/26 03:40:11;;;;;;;26.80;21.03;;;8.60;99.90;;;;;;5075063;28;20438;-73
2022/04/26 03:42:36;;;;;;;26.43;21.50;;;8.60;99.90;;;;;;5074696;28;20029;-73
2022/04/26 03:45:02;;;;;;;28.50;21.83;;;8.60;99.90;;;;;;5074714;28;20054;-73
2022/04/26 03:47:28;;;;;;;29.13;21.97;;;8.60;99.90;;;;;;5074694;28;20097;-73
2022/04/26 03:49:54;;;;;;;27.77;21.40;;;8.60;99.90;;;;;;5074556;28;20493;-73
2022/04/26 03:52:20;;;;;;;26.60;20.33;;;8.60;99.90;;;;;;5090058;28;20024;-73
2022/04/26 03:54:46;;;;;;;26.70;20.70;;;8.60;99.90;;;;;;5074382;28;20028;-73
2022/04/26 03:57:11;;;;;;;26.70;20.50;;;8.60;99.90;;;;;;5074191;28;20462;-73
2022/04/26 03:59:37;;;;;;;25.87;21.13;;;8.60;99.90;;;;;;5074328;28;20052;-73
2022/04/26 04:02:03;;;;;;;27.23;22.53;;;8.60;99.90;;;;;;5074331;28;20036;-73
2022/04/26 04:04:29;;;;;;;27.50;21.53;;;8.60;99.90;;;;;;5074196;28;20078;-73
2022/04/26 04:06:54;;;;;;;25.97;21.50;;;8.60;99.90;;;;;;5074252;28;20032;-72
2022/04/26 04:09:20;;;;;;;24.30;20.03;;;8.60;99.90;;;;;;5056289;28;20032;-73
2022/04/26 04:11:45;;;;;;;24.67;19.90;;;8.60;99.90;;;;;;5074199;28;20519;-74
2022/04/26 04:14:13;;;;;;;23.27;19.40;;;8.60;99.90;;;;;;5074298;28;20060;-75
2022/04/26 04:16:40;;;;;;;25.70;20.33;;;8.60;99.90;;;;;;5056308;28;20083;-75
2022/04/26 04:19:17;;;;;;;26.40;21.10;;;8.60;99.90;;;;;;5074492;28;20036;-75
2022/04/26 04:21:45;;;;;;;24.57;20.70;;;8.60;99.90;;;;;;5074155;28;20028;-75
2022/04/26 04:24:11;;;;;;;24.67;19.93;;;8.60;99.90;;;;;;5074515;28;20078;-75
2022/04/26 04:26:37;;;;;;;22.90;18.93;;;8.60;99.90;;;;;;5073670;28;20024;-74
2022/04/26 04:29:03;;;;;;;25.10;19.27;;;8.60;99.90;;;;;;5074197;28;20481;-74
2022/04/26 04:31:29;;;;;;;25.63;19.87;;;8.60;99.90;;;;;;5074494;28;20025;-74
2022/04/26 04:33:54;;;;;;;23.43;19.57;;;8.60;99.90;;;;;;5074242;28;20033;-74
2022/04/26 04:36:20;;;;;;;24.50;19.77;;;8.60;99.90;;;;;;5080939;28;20040;-79
2022/04/26 04:38:45;;;;;;;23.63;19.20;;;8.60;99.90;;;;;;5071845;28;20032;-79
2022/04/26 04:41:11;;;;;;;23.57;18.97;;;8.60;99.90;;;;;;5067772;28;20029;-79
2022/04/26 04:43:37;;;;;;;23.37;19.27;;;8.60;99.90;;;;;;5075493;28;20407;-81
2022/04/26 04:46:02;;;;;;;24.47;19.73;;;8.60;99.90;;;;;;5106726;28;20028;-81
2022/04/26 04:48:28;;;;;;;23.43;19.53;;;8.60;99.90;;;;;;5089137;28;20312;-81
2022/04/26 04:50:54;;;;;;;24.30;19.27;;;8.60;99.90;;;;;;5107797;28;20032;-81
2022/04/26 04:53:20;;;;;;;22.63;18.90;;;8.60;99.90;;;;;;5108208;28;20031;-81
2022/04/26 04:55:46;;;;;;;24.57;19.77;;;8.70;99.90;;;;;;5090979;28;20490;-81
2022/04/26 04:58:11;;;;;;;25.63;19.57;;;8.70;99.90;;;;;;5107971;28;20053;-81
2022/04/26 05:00:37;;;;;;;24.90;19.87;;;8.80;99.90;;;;;;5089553;28;20023;-81
2022/04/26 05:03:05;;;;;;;23.77;18.60;;;8.80;99.90;;;;;;5089160;28;20020;-81
2022/04/26 05:05:31;;;;;;;22.57;18.57;;;8.80;99.90;;;;;;5106196;28;20473;-81
2022/04/26 05:07:58;;;;;;;21.80;17.40;;;8.90;99.90;;;;;;5088351;28;20039;-81
2022/04/26 05:10:24;;;;;;;20.80;16.67;;;8.90;99.90;;;;;;5088715;28;20032;-83
2022/04/26 05:12:49;;;;;;;20.70;16.70;;;8.90;99.90;;;;;;5088269;28;20453;-81
2022/04/26 05:15:15;;;;;;;24.20;18.77;;;9.00;99.90;;;;;;5108330;28;20081;-82
2022/04/26 05:17:41;;;;;;;19.50;17.10;;;9.00;99.90;;;;;;5094744;28;20032;-81
2022/04/26 05:20:08;;;;;;;20.30;16.37;;;9.00;99.90;;;;;;5093692;28;20020;-84
2022/04/26 05:24:53;;;;;;;19.67;17.07;;;9.10;99.90;;;;;;5093522;28;20478;-82
2022/04/26 05:25:20;;;;;;;23.67;18.80;;;9.10;99.90;;;;;;5093764;28;20153;-82
2022/04/26 05:27:45;;;;;;;21.83;18.10;;;9.10;99.90;;;;;;5092980;28;20107;-82
2022/04/26 05:30:12;;;;;;;20.83;17.07;;;9.20;99.90;;;;;;5092048;28;20078;-89
2022/04/26 05:32:38;;;;;;;22.63;18.07;;;9.10;99.90;;;;;;5091663;28;20024;-82
2022/04/26 05:35:05;;;;;;;20.67;17.50;;;9.20;99.90;;;;;;5087958;28;20042;-82
2022/04/26 05:37:34;;;;;;;17.90;16.00;;;9.20;99.90;;;;;;5080371;28;20364;-83
2022/04/26 05:40:02;;;;;;;20.13;17.13;;;9.20;99.90;;;;;;5093260;28;20767;-82
2022/04/26 05:42:28;;;;;;;21.33;17.93;;;9.20;99.90;;;;;;5092850;28;20042;-83
2022/04/26 05:44:54;;;;;;;20.33;17.60;;;9.30;99.90;;;;;;5093580;28;20131;-82
2022/04/26 05:47:20;;;;;;;19.50;17.40;;;9.30;99.90;;;;;;5093397;28;20119;-83
2022/04/26 05:49:45;;;;;;;22.43;18.93;;;9.40;99.90;;;;;;5093817;28;20027;-83
2022/04/26 05:52:11;;;;;;;20.13;17.67;;;9.40;99.90;;;;;;5092868;28;20104;-82
2022/04/26 05:54:36;;;;;;;21.43;17.77;;;9.40;99.90;;;;;;5092693;28;20035;-83
2022/04/26 05:57:02;;;;;;;20.38;17.70;;;9.40;99.90;;;;;;5096601;28;20032;-83
2022/04/26 05:59:28;;;;;;;19.50;16.33;;;9.30;99.90;;;;;;5092825;28;20028;-82
2022/04/26 06:01:54;;;;;;;18.67;16.52;;;9.40;99.90;;;;;;5090470;28;20035;-83
2022/04/26 06:04:19;;;;;;;20.43;16.23;;;9.30;99.90;;;;;;5093136;28;20103;-87
2022/04/26 06:06:45;;;;;;;17.90;14.73;;;9.30;99.90;;;;;;5074025;28;20114;-82
2022/04/26 06:09:13;;;;;;;19.40;15.07;;;9.30;99.90;;;;;;5090451;28;20059;-82
2022/04/26 06:11:40;;;;;;;18.90;15.20;;;9.30;99.90;;;;;;5088714;28;20016;-82
2022/04/26 06:14:06;;;;;;;17.75;15.23;;;9.40;99.90;;;;;;5088476;28;20030;-82
2022/04/26 06:16:32;;;;;;;21.65;16.10;;;9.40;99.90;;;;;;5073301;28;20036;-82
2022/04/26 06:18:57;;;;;;;16.30;13.18;;;9.50;99.90;;;;;;5091174;28;20032;-82
2022/04/26 06:21:23;;;;;;;17.40;14.23;;;9.50;99.90;;;;;;5091936;28;20028;-82
2022/04/26 06:23:49;;;;;;;18.00;14.20;;;9.60;99.90;;;;;;5089562;28;20576;-82
2022/04/26 06:26:15;;;;;;;14.98;13.15;;;9.60;99.90;;;;;;5089390;28;20496;-82
2022/04/26 06:28:41;;;;;;;15.05;13.25;;;9.70;99.90;;;;;;5088889;28;20055;-82
2022/04/26 06:31:06;;;;;;;14.97;13.40;;;9.70;99.90;;;;;;5095855;28;20024;-80
2022/04/26 06:33:34;;;;;;;14.57;12.88;;;9.80;99.90;;;;;;5078349;28;20050;-81
2022/04/26 06:36:00;;;;;;;16.38;14.18;;;9.90;99.90;;;;;;5096953;28;20068;-81
2022/04/26 06:38:26;;;;;;;16.95;13.93;;;10.00;99.90;;;;;;5096928;28;20341;-80
2022/04/26 06:40:52;;;;;;;15.95;13.65;;;10.10;99.90;;;;;;5096972;28;20104;-82
2022/04/26 06:43:24;;;;;;;15.57;13.13;;;10.20;99.90;;;;;;5096260;28;20031;-80
2022/04/26 06:45:51;;;;;;;16.80;13.68;;;10.20;99.90;;;;;;5084882;28;20541;-81
2022/04/26 06:48:19;;;;;;;15.30;12.52;;;10.30;99.90;;;;;;5096825;28;20020;-82
2022/04/26 06:50:46;;;;;;;14.23;11.70;;;10.40;99.90;;;;;;5097110;28;20030;-81
2022/04/26 06:53:13;;;;;;;12.60;9.77;;;10.50;99.90;;;;;;5096204;28;20464;-82
2022/04/26 06:55:38;;;;;;;10.38;9.15;;;10.60;99.90;;;;;;5096135;28;20020;-82
2022/04/26 06:58:04;;;;;;;8.85;7.95;;;10.80;99.90;;;;;;5096137;28;20032;-82
2022/04/26 07:00:32;;;;;;;9.85;7.97;;;11.00;99.90;;;;;;5096765;28;20496;-82
2022/04/26 07:02:58;;;;;;;7.22;6.53;;;11.00;99.90;;;;;;5096259;28;20020;-82
2022/04/26 07:05:24;;;;;;;8.90;6.90;;;11.10;99.90;;;;;;5095915;28;20028;-82
2022/04/26 07:07:51;;;;;;;8.13;6.93;;;11.10;99.90;;;;;;5096122;28;20027;-82
2022/04/26 07:10:17;;;;;;;9.45;7.03;;;11.10;99.90;;;;;;5087624;28;20027;-82
2022/04/26 07:12:42;;;;;;;8.00;6.47;;;11.10;99.90;;;;;;5096023;28;20031;-82
2022/04/26 07:15:08;;;;;;;7.72;6.30;;;11.20;99.90;;;;;;5077485;28;20020;-83
2022/04/26 07:17:37;;;;;;;6.03;5.45;;;11.30;99.90;;;;;;5094723;28;20024;-83
2022/04/26 07:20:03;;;;;;;7.93;6.03;;;11.50;99.90;;;;;;5095590;28;20052;-83
2022/04/26 07:22:30;;;;;;;5.72;5.07;;;11.50;99.90;;;;;;5095694;28;20073;-83
2022/04/26 07:24:56;;;;;;;5.93;5.25;;;11.40;99.90;;;;;;5095624;28;20020;-83
2022/04/26 07:27:22;;;;;;;6.97;5.22;;;11.40;99.90;;;;;;5095454;28;20099;-82
2022/04/26 07:29:52;;;;;;;6.03;5.10;;;11.40;99.90;;;;;;5095495;28;20136;-83
2022/04/26 07:32:18;;;;;;;6.68;5.55;;;11.40;99.90;;;;;;5092375;28;20073;-85
2022/04/26 07:34:45;;;;;;;5.97;5.38;;;11.40;99.90;;;;;;5092278;28;20032;-86
2022/04/26 07:37:11;;;;;;;5.75;4.70;;;11.50;99.90;;;;;;5081738;28;20438;-86
2022/04/26 07:39:36;;;;;;;5.88;5.13;;;11.40;99.90;;;;;;5093948;28;20040;-86
2022/04/26 07:42:04;;;;;;;7.72;5.28;;;11.50;99.90;;;;;;5093507;28;20012;-86
2022/04/26 07:44:30;;;;;;;11.80;6.20;;;11.40;99.90;;;;;;5094106;28;20384;-85
2022/04/26 07:46:57;;;;;;;7.82;5.55;;;11.40;99.90;;;;;;5093758;28;20070;-86
2022/04/26 07:49:23;;;;;;;5.10;4.60;;;11.40;99.90;;;;;;5083174;28;20028;-86
2022/04/26 07:51:51;;;;;;;6.03;5.13;;;11.30;99.90;;;;;;5084168;28;20069;-86
2022/04/26 07:54:17;;;;;;;5.75;5.15;;;11.30;99.90;;;;;;5080714;28;20032;-87
2022/04/26 07:56:44;;;;;;;6.18;4.88;;;11.40;99.90;;;;;;5093458;28;20073;-86
2022/04/26 07:59:10;;;;;;;6.65;4.80;;;11.40;99.90;;;;;;5083766;28;20020;-86
2022/04/26 08:01:36;;;;;;;6.38;4.78;;;11.30;99.90;;;;;;5083756;28;20035;-86
2022/04/26 08:04:09;;;;;;;6.35;5.32;;;11.40;99.90;;;;;;5093710;28;20024;-87
2022/04/26 08:06:35;;;;;;;7.53;5.80;;;11.50;99.90;;;;;;5093559;28;20055;-86
2022/04/26 08:09:03;;;;;;;5.97;4.55;;;11.50;99.90;;;;;;5084649;28;20489;-86
2022/04/26 08:11:31;;;;;;;5.22;4.65;;;11.70;99.90;;;;;;5093880;28;20108;-86
2022/04/26 08:14:00;;;;;;;5.88;4.40;;;11.80;99.90;;;;;;5093167;28;20026;-86
2022/04/26 08:16:25;;;;;;;5.53;3.60;;;11.90;99.90;;;;;;5093089;28;20013;-83
2022/04/26 08:18:51;;;;;;;4.38;3.80;;;12.00;99.90;;;;;;5084442;28;20103;-86
2022/04/26 08:21:17;;;;;;;4.80;3.42;;;12.10;99.90;;;;;;5093243;28;20462;-86
2022/04/26 08:29:14;;;;;;;3.55;3.22;;;12.40;99.90;;;;;;5092615;28;20067;-87
2022/04/26 08:31:40;;;;;;;3.17;2.70;;;12.30;99.90;;;;;;5092357;28;20115;-87
2022/04/26 08:34:06;;;;;;;4.45;3.05;;;12.20;99.90;;;;;;5093391;28;20043;-86
2022/04/26 08:36:31;;;;;;;3.92;2.70;;;12.00;99.90;;;;;;5093701;28;20737;-86
2022/04/26 08:38:58;;;;;;;4.40;2.70;;;11.90;99.90;;;;;;5093744;28;20027;-86
2022/04/26 08:41:23;;;;;;;3.67;2.78;;;11.80;99.90;;;;;;5093682;28;20085;-85
2022/04/26 08:43:49;;;;;;;3.35;2.90;;;11.60;99.90;;;;;;5087830;28;20027;-86
2022/04/26 08:46:14;;;;;;;4.13;3.25;;;11.50;99.90;;;;;;5093855;28;20028;-85
2022/04/26 08:51:24;;;;;;;4.32;3.40;;;11.30;99.90;;;;;;5093304;28;20038;-85
2022/04/26 08:53:50;;;;;;;5.72;3.70;;;11.20;99.90;;;;;;5093231;28;20047;-84
2022/04/26 08:56:16;;;;;;;5.45;3.38;;;11.20;99.90;;;;;;5093068;28;20060;-84
2022/04/26 08:58:43;;;;;;;5.22;2.95;;;11.20;99.90;;;;;;5093180;28;20444;-84
2022/04/26 09:01:13;;;;;;;4.07;2.92;;;11.20;99.90;;;;;;5092675;28;20069;-84
2022/04/26 09:03:55;;;;;;;3.33;2.35;;;11.30;99.90;;;;;;5093879;28;20065;-82
2022/04/26 09:06:36;;;;;;;2.50;2.05;;;11.50;99.90;;;;;;5094035;28;20030;-83
2022/04/26 09:09:14;;;;;;;2.30;1.98;;;11.70;99.90;;;;;;5094006;28;20032;-83
2022/04/26 09:11:41;;;;;;;2.75;1.85;;;11.80;99.90;;;;;;5094089;28;20035;-83
2022/04/26 09:14:29;;;;;;;2.47;1.92;;;12.00;99.90;;;;;;5075933;28;20452;-83
2022/04/26 09:17:11;;;;;;;2.75;2.38;;;12.00;99.90;;;;;;5093512;28;20050;-83
2022/04/26 09:19:56;;;;;;;2.30;2.10;;;12.20;99.90;;;;;;5093780;28;20028;-83
2022/04/26 09:22:27;;;;;;;2.63;2.10;;;12.20;99.90;;;;;;5093856;28;20028;-82
2022/04/26 09:24:54;;;;;;;4.50;2.53;;;12.10;99.90;;;;;;5093458;28;20103;-82
2022/04/26 09:27:20;;;;;;;3.13;2.20;;;12.20;99.90;;;;;;5093692;28;20027;-82
2022/04/26 09:29:47;;;;;;;4.05;2.10;;;12.30;99.90;;;;;;5075348;28;20048;-82
2022/04/26 09:32:13;;;;;;;3.08;2.35;;;12.40;99.90;;;;;;5093886;28;20074;-83
2022/04/26 09:34:38;;;;;;;2.90;2.50;;;12.30;99.90;;;;;;5093627;28;20028;-82
2022/04/26 09:37:05;;;;;;;2.80;2.50;;;12.40;99.90;;;;;;5093261;28;20073;-83
2022/04/26 09:39:31;;;;;;;4.10;2.90;;;12.20;99.90;;;;;;5093701;28;20020;-83
2022/04/26 09:41:56;;;;;;;2.65;2.42;;;12.10;99.90;;;;;;5093240;28;20031;-83
2022/04/26 09:44:32;;;;;;;2.88;2.58;;;12.00;99.90;;;;;;5093557;28;20035;-83
2022/04/26 09:46:58;;;;;;;3.25;2.95;;;11.90;99.90;;;;;;5093215;28;20035;-82
2022/04/26 09:49:25;;;;;;;3.08;2.70;;;11.80;99.90;;;;;;5076666;28;20028;-85
2022/04/26 09:51:59;;;;;;;4.38;2.50;;;11.70;99.90;;;;;;5092746;28;20020;-85
2022/04/26 09:54:25;;;;;;;3.10;2.45;;;11.50;99.90;;;;;;5091518;28;20035;-85
2022/04/26 09:56:52;;;;;;;2.47;2.25;;;11.40;99.90;;;;;;5091448;28;20552;-85
2022/04/26 09:59:28;;;;;;;3.05;2.70;;;11.40;99.90;;;;;;5091191;28;20024;-85
2022/04/26 10:01:56;;;;;;;4.63;2.80;;;11.20;99.90;;;;;;5081996;28;20081;-85
2022/04/26 10:04:24;;;;;;;4.88;2.90;;;11.10;99.90;;;;;;5091332;28;20020;-85
2022/04/26 10:07:12;;;;;;;3.13;2.50;;;11.00;99.90;;;;;;5091212;28;20032;-85
2022/04/26 10:09:38;;;;;;;6.28;2.83;;;11.00;99.90;;;;;;5090471;28;20146;-84
2022/04/26 10:12:04;;;;;;;4.50;2.70;;;10.90;99.90;;;;;;5089209;28;20035;-84
2022/04/26 10:14:32;;;;;;;5.75;3.15;;;10.80;99.90;;;;;;5090131;28;20113;-84
2022/04/26 10:16:58;;;;;;;6.85;3.58;;;10.80;99.90;;;;;;5090883;28;20020;-84
2022/04/26 10:19:38;;;;;;;4.40;3.20;;;10.80;99.90;;;;;;5089920;28;20039;-84
2022/04/26 10:22:04;;;;;;;6.18;3.45;;;10.80;99.90;;;;;;5088850;28;20078;-84
2022/04/26 10:24:30;;;;;;;5.40;3.30;;;10.80;99.90;;;;;;5094101;28;20020;-84
2022/04/26 10:27:16;;;;;;;3.80;3.25;;;10.90;99.90;;;;;;5095599;28;20024;-85
2022/04/26 10:29:45;;;;;;;3.58;2.95;;;11.00;99.90;;;;;;5094640;28;20060;-84
2022/04/26 10:32:13;;;;;;;4.88;3.13;;;11.00;99.90;;;;;;5093935;28;20027;-84
2022/04/26 10:34:40;;;;;;;5.95;3.20;;;11.00;99.90;;;;;;5092938;28;20043;-84
2022/04/26 10:37:06;;;;;;;3.95;3.33;;;11.00;99.90;;;;;;5093742;28;20426;-84
2022/04/26 10:39:41;;;;;;;6.32;3.78;;;11.00;99.90;;;;;;5093263;28;20024;-84
2022/04/26 10:42:15;;;;;;;3.42;3.13;;;10.90;99.90;;;;;;5092291;28;20107;-84
2022/04/26 10:44:46;;;;;;;4.25;2.90;;;10.80;99.90;;;;;;5097659;28;20483;-84
2022/04/26 10:47:23;;;;;;;4.43;3.80;;;10.80;99.90;;;;;;5092107;28;20055;-83
2022/04/26 10:49:51;;;;;;;4.07;3.35;;;10.70;99.90;;;;;;5087568;28;20020;-80
2022/04/26 10:52:23;;;;;;;7.53;4.25;;;10.70;99.90;;;;;;5098647;28;20036;-80
2022/04/26 10:54:51;;;;;;;7.95;4.32;;;10.60;99.90;;;;;;5092398;28;20024;-80
2022/04/26 10:57:19;;;;;;;5.18;3.65;;;10.30;99.90;;;;;;5080005;28;20024;-83
2022/04/26 10:59:48;;;;;;;4.95;3.28;;;10.10;99.90;;;;;;5093645;28;20070;-83
2022/04/26 11:02:16;;;;;;;3.57;3.07;;;9.90;99.90;;;;;;5090949;28;20147;-81
2022/04/26 11:04:42;;;;;;;5.00;2.90;;;9.70;99.90;;;;;;5101451;22;20054;-84
2022/04/26 11:07:15;;;;;;;2.97;2.65;;;9.50;99.90;;;;;;5049076;28;20082;-83
2022/04/26 11:09:54;;;;;;;3.73;2.73;;;9.40;99.90;;;;;;5053012;28;20025;-83
2022/04/26 11:12:22;;;;;;;3.57;2.73;;;9.30;99.90;;;;;;5048786;28;20636;-84
2022/04/26 11:14:49;;;;;;;4.90;2.90;;;9.20;99.90;;;;;;5026315;28;20033;-85
2022/04/26 11:17:16;;;;;;;2.90;2.30;;;9.10;99.90;;;;;;5041897;28;20033;-84
2022/04/26 11:19:56;;;;;;;4.53;2.40;;;9.10;99.90;;;;;;5042204;28;20032;-83
2022/04/26 11:22:22;;;;;;;3.50;2.37;;;9.10;99.90;;;;;;5038095;28;20032;-83
2022/04/26 11:30:35;;;;;;;2.90;1.90;;;8.90;99.90;;;;;;5042080;28;20142;-83
2022/04/26 11:33:10;;;;;;;3.07;2.03;;;9.00;99.90;;;;;;5040758;28;20035;-83
2022/04/26 11:35:36;;;;;;;2.80;2.15;;;8.90;99.90;;;;;;5022764;28;21092;-83
2022/04/26 11:38:16;;;;;;;5.30;1.97;;;8.90;99.90;;;;;;5042065;28;20041;-83
2022/04/26 11:40:50;;;;;;;2.83;2.17;;;8.80;99.90;;;;;;5041906;28;20028;-83
2022/04/26 11:43:24;;;;;;;3.23;2.53;;;8.90;99.90;;;;;;5038878;28;20037;-83
2022/04/26 11:45:55;;;;;;;3.58;2.40;;;8.80;99.90;;;;;;5017851;28;20024;-83
2022/04/26 11:48:24;;;;;;;4.23;2.50;;;8.90;99.90;;;;;;5039737;28;20043;-84
2022/04/26 11:50:51;;;;;;;3.80;2.50;;;8.80;99.90;;;;;;5041489;28;20047;-83
2022/04/26 11:53:19;;;;;;;5.07;3.27;;;8.80;99.90;;;;;;5039543;28;20033;-83
2022/04/26 11:55:51;;;;;;;3.87;2.70;;;8.70;99.90;;;;;;5039009;28;20059;-82
2022/04/26 11:58:18;;;;;;;6.10;2.90;;;8.60;99.90;;;;;;5040345;28;20075;-83
2022/04/26 12:01:10;;;;;;;4.47;3.07;;;8.70;99.90;;;;;;5029817;28;20033;-82
2022/04/26 12:03:38;;;;;;;4.43;3.17;;;8.60;99.90;;;;;;5023353;28;20083;-82
2022/04/26 12:06:10;;;;;;;5.23;3.10;;;8.60;99.90;;;;;;5045154;28;20053;-81
2022/04/26 12:08:47;;;;;;;7.47;3.37;;;8.70;99.90;;;;;;5045507;28;20048;-81
2022/04/26 12:11:18;;;;;;;3.10;2.80;;;8.60;99.90;;;;;;5044977;28;20024;-81
2022/04/26 12:13:44;;;;;;;4.20;3.20;;;8.60;99.90;;;;;;5044228;28;20033;-81
2022/04/26 12:16:17;;;;;;;5.17;3.63;;;8.60;99.90;;;;;;5045436;28;20044;-81
2022/04/26 12:18:55;;;;;;;6.00;3.93;;;8.60;99.90;;;;;;5043773;28;20086;-81
2022/04/26 12:21:23;;;;;;;4.87;3.67;;;8.50;99.90;;;;;;5044573;28;20033;-81
2022/04/26 12:24:29;;;;;;;5.07;4.23;;;8.60;99.90;;;;;;5043735;28;20374;-81
2022/04/26 12:27:01;;;;;;;8.65;3.90;;;8.50;99.90;;;;;;5045380;28;20032;-81
2022/04/26 12:29:40;;;;;;;5.20;3.20;;;8.60;99.90;;;;;;5046130;28;20017;-81
2022/04/26 12:32:07;;;;;;;6.37;3.50;;;8.50;99.90;;;;;;5046199;28;20086;-81
2022/04/26 12:34:34;;;;;;;5.80;3.23;;;8.50;99.90;;;;;;5043171;28;20108;-82
2022/04/26 12:37:11;;;;;;;4.73;2.47;;;8.40;99.90;;;;;;5039600;28;20147;-81
2022/04/26 12:39:50;;;;;;;4.90;2.23;;;8.40;99.90;;;;;;5039458;28;20567;-81
2022/04/26 12:42:28;;;;;;;4.93;2.60;;;8.30;99.90;;;;;;5037036;28;20418;-81
2022/04/26 12:44:58;;;;;;;3.83;2.10;;;8.30;99.90;;;;;;5040247;28;20044;-81
2022/04/26 12:50:28;;;;;;;3.57;2.33;;;8.20;99.90;;;;;;5038785;28;20056;-81
2022/04/26 12:52:56;;;;;;;5.77;2.23;;;8.10;99.90;;;;;;5036599;28;20071;-81
2022/04/26 12:55:34;;;;;;;5.77;2.40;;;8.10;99.90;;;;;;5038646;28;20056;-82
2022/04/26 12:58:39;;;;;;;3.07;2.17;;;8.10;99.90;;;;;;5015916;28;20021;-81
2022/04/26 13:01:06;;;;;;;5.13;2.10;;;8.10;99.90;;;;;;5039763;28;20534;-82
2022/04/26 13:03:33;;;;;;;4.27;2.00;;;8.00;99.90;;;;;;5038412;28;20028;-81
2022/04/26 13:06:17;;;;;;;4.47;2.50;;;8.00;99.90;;;;;;5039140;28;20156;-82
2022/04/26 13:08:48;;;;;;;4.57;2.42;;;8.10;99.90;;;;;;5039510;28;20033;-82
2022/04/26 13:11:17;;;;;;;3.33;2.43;;;8.10;99.90;;;;;;5039423;28;20095;-81
2022/04/26 13:13:46;;;;;;;3.73;2.00;;;8.30;99.90;;;;;;5019942;28;20052;-82
2022/04/26 13:16:12;;;;;;;5.10;2.57;;;8.30;99.90;;;;;;5039841;28;20036;-82
2022/04/26 13:18:38;;;;;;;4.20;2.47;;;8.30;99.90;;;;;;5039726;28;20564;-81
2022/04/26 13:21:05;;;;;;;2.80;2.20;;;8.40;99.90;;;;;;5038940;28;20125;-82
2022/04/26 13:23:33;;;;;;;4.30;2.10;;;8.50;99.90;;;;;;5037813;28;20029;-82
2022/04/26 13:26:00;;;;;;;3.70;2.10;;;8.70;99.90;;;;;;5040271;28;20037;-79
2022/04/26 13:28:26;;;;;;;2.87;2.30;;;8.80;99.90;;;;;;5053131;28;20393;-79
2022/04/26 13:30:52;;;;;;;5.03;2.30;;;8.90;99.90;;;;;;5052965;28;20029;-79
2022/04/26 13:33:18;;;;;;;4.37;2.20;;;9.00;99.90;;;;;;5053285;28;20025;-80
2022/04/26 13:35:43;;;;;;;4.17;2.57;;;9.20;99.90;;;;;;5052977;28;20029;-80
2022/04/26 13:38:16;;;;;;;4.30;2.60;;;9.40;99.90;;;;;;5053199;28;20369;-79
2022/04/26 13:40:42;;;;;;;3.23;1.80;;;9.60;99.90;;;;;;5053160;28;20362;-79
2022/04/26 13:43:08;;;;;;;3.77;1.90;;;9.90;99.90;;;;;;5052981;28;20120;-80
2022/04/26 13:45:34;;;;;;;3.03;1.90;;;10.10;99.90;;;;;;5052990;28;20037;-80
2022/04/26 13:48:08;;;;;;;2.95;1.80;;;10.20;99.90;;;;;;5053285;28;20022;-80
2022/04/26 13:50:34;;;;;;;3.63;1.80;;;10.30;99.90;;;;;;5053034;28;20499;-81
2022/04/26 13:53:02;;;;;;;3.17;1.63;;;10.30;99.90;;;;;;5052941;28;20029;-80
2022/04/26 13:55:27;;;;;;;2.97;1.50;;;10.30;99.90;;;;;;5034933;28;20052;-80
2022/04/26 13:57:54;;;;;;;3.33;1.60;;;10.30;99.90;;;;;;5053181;28;20048;-80
2022/04/26 14:00:20;;;;;;;2.40;1.70;;;10.30;99.90;;;;;;5038785;28;20469;-80
2022/04/26 14:02:48;;;;;;;2.43;1.60;;;10.40;99.90;;;;;;5057478;28;20059;-80
2022/04/26 14:05:15;;;;;;;2.95;2.15;;;10.40;99.90;;;;;;5035495;28;20046;-80
2022/04/26 14:07:40;;;;;;;3.38;2.00;;;10.20;99.90;;;;;;5037129;28;20030;-80
2022/04/26 14:10:07;;;;;;;2.78;1.85;;;10.10;99.90;;;;;;5036082;28;20033;-81
2022/04/26 14:12:34;;;;;;;4.93;2.07;;;9.90;99.90;;;;;;5037020;28;20028;-80
2022/04/26 14:23:11;;;;;;;3.80;2.20;;;9.10;99.90;;;;;;5037620;28;20024;-80
2022/04/26 14:25:38;;;;;;;4.70;2.50;;;9.00;99.90;;;;;;5037250;28;20365;-80
2022/04/26 14:28:05;;;;;;;3.87;2.20;;;8.90;99.90;;;;;;5036879;28;20022;-81
2022/04/26 14:30:30;;;;;;;4.63;2.50;;;9.00;99.90;;;;;;5029273;28;20100;-83
2022/04/26 14:32:56;;;;;;;4.77;2.80;;;9.00;99.90;;;;;;5022814;28;20071;-83
2022/04/26 14:35:22;;;;;;;3.07;2.40;;;9.00;99.90;;;;;;5024196;28;20141;-83
2022/04/26 14:37:49;;;;;;;3.57;2.83;;;9.10;99.90;;;;;;5023972;28;20027;-83
2022/04/26 14:40:14;;;;;;;3.77;2.80;;;9.10;99.90;;;;;;5025772;28;20083;-83
2022/04/26 14:42:45;;;;;;;2.70;2.40;;;9.20;99.90;;;;;;5022939;28;20362;-83
2022/04/26 14:45:10;;;;;;;2.97;2.33;;;9.20;99.90;;;;;;5027998;28;20041;-84
2022/04/26 14:47:36;;;;;;;4.03;2.70;;;9.20;99.90;;;;;;5030488;28;20115;-84
2022/04/26 14:50:02;;;;;;;5.23;2.80;;;9.20;99.90;;;;;;5033691;28;20040;-86
2022/04/26 14:52:28;;;;;;;3.47;2.30;;;9.20;99.90;;;;;;5034609;28;20036;-87
2022/04/26 14:54:53;;;;;;;4.00;3.07;;;9.20;99.90;;;;;;5034490;28;20029;-86
2022/04/26 14:57:21;;;;;;;4.60;2.23;;;9.30;99.90;;;;;;5034580;28;20089;-86
2022/04/26 14:59:47;;;;;;;3.27;2.57;;;9.40;99.90;;;;;;5033260;28;20030;-86
2022/04/26 15:02:17;;;;;;;5.80;2.40;;;9.60;99.90;;;;;;5034236;28;20025;-86
2022/04/26 15:04:44;;;;;;;3.90;2.60;;;9.70;99.90;;;;;;5036088;28;20750;-86
2022/04/26 15:07:13;;;;;;;4.13;2.70;;;10.00;99.90;;;;;;5036048;28;20087;-85
2022/04/26 15:09:46;;;;;;;3.43;2.53;;;10.10;99.90;;;;;;5054147;28;20021;-86
2022/04/26 15:17:48;;;;;;;3.65;2.88;;;11.00;99.90;;;;;;5054300;28;20064;-86
2022/04/26 15:20:15;;;;;;;5.40;3.15;;;10.90;99.90;;;;;;5025520;28;20025;-86
2022/04/26 15:22:41;;;;;;;4.85;2.90;;;10.90;99.90;;;;;;5054007;28;20021;-86
2022/04/26 15:25:09;;;;;;;5.70;3.83;;;10.80;99.90;;;;;;5054726;28;20025;-87
2022/04/26 15:27:38;;;;;;;5.93;3.45;;;10.70;99.90;;;;;;5052815;28;20032;-87
2022/04/26 15:30:08;;;;;;;6.07;3.28;;;10.60;99.90;;;;;;5049811;28;20064;-87
2022/04/26 15:32:35;;;;;;;5.80;3.33;;;10.50;99.90;;;;;;5053361;28;20017;-86
2022/04/26 15:35:01;;;;;;;10.73;4.07;;;10.40;99.90;;;;;;5036343;28;20024;-86
2022/04/26 15:37:27;;;;;;;5.30;4.32;;;10.30;99.90;;;;;;5054751;28;20028;-86
2022/04/26 15:39:54;;;;;;;5.13;4.15;;;10.20;99.90;;;;;;5053902;28;20191;-85
2022/04/26 15:42:23;;;;;;;6.38;4.22;;;10.00;99.90;;;;;;5053296;28;20481;-84
2022/04/26 15:44:49;;;;;;;7.10;4.10;;;9.90;99.90;;;;;;5052478;28;20491;-83
2022/04/26 15:47:15;;;;;;;6.40;4.20;;;9.80;99.90;;;;;;5055636;28;20017;-84
2022/04/26 15:49:41;;;;;;;4.67;3.57;;;9.70;99.90;;;;;;5057993;28;20108;-84
2022/04/26 15:52:07;;;;;;;4.63;3.53;;;9.90;99.90;;;;;;5055648;28;20033;-84
2022/04/26 15:54:34;;;;;;;4.93;3.67;;;10.10;99.90;;;;;;5054793;28;20094;-84
2022/04/26 15:56:59;;;;;;;4.50;3.42;;;10.30;99.90;;;;;;5054042;28;20078;-84
2022/04/26 15:59:25;;;;;;;4.63;3.50;;;10.50;99.90;;;;;;5054063;28;20029;-84
2022/04/26 16:01:50;;;;;;;3.15;2.85;;;10.50;99.90;;;;;;5031129;28;20381;-84
2022/04/26 16:04:16;;;;;;;4.30;2.67;;;10.40;99.90;;;;;;5049268;28;20098;-84
2022/04/26 16:06:42;;;;;;;3.70;2.80;;;10.40;99.90;;;;;;5027503;28;20064;-84
2022/04/26 16:23:08;;;;;;;3.60;3.10;;;9.90;99.90;;;;;;5008964;28;20558;-83
2022/04/26 16:25:34;;;;;;;4.78;3.60;;;9.90;99.90;;;;;;5025173;28;20132;-79
2022/04/26 16:28:01;;;;;;;4.20;3.30;;;9.90;99.90;;;;;;5034021;28;20030;-78
2022/04/26 16:30:29;;;;;;;4.40;3.37;;;9.90;99.90;;;;;;5033166;28;20080;-82
2022/04/26 16:32:56;;;;;;;3.97;3.10;;;9.80;99.90;;;;;;5033605;28;20024;-85
2022/04/26 16:35:22;;;;;;;4.50;3.60;;;9.70;99.90;;;;;;5031864;28;20064;-80
2022/04/26 16:37:47;;;;;;;5.13;3.80;;;9.70;99.90;;;;;;5028983;28;20072;-69
2022/04/26 16:40:13;;;;;;;4.13;3.40;;;9.80;99.90;;;;;;5022447;28;20146;-80
2022/04/26 16:42:39;;;;;;;4.30;3.50;;;9.90;99.90;;;;;;5019504;28;20572;-79
2022/04/26 16:45:06;;;;;;;5.97;3.43;;;10.00;99.90;;;;;;5029351;28;20049;-79
2022/04/26 16:47:32;;;;;;;6.72;3.22;;;10.10;99.90;;;;;;5033003;28;20034;-79
2022/04/26 16:49:58;;;;;;;4.20;3.37;;;10.30;99.90;;;;;;5030138;28;20048;-80
2022/04/26 16:52:23;;;;;;;3.90;2.67;;;10.30;99.90;;;;;;5030990;28;20025;-79
2022/04/26 16:54:53;;;;;;;3.23;2.37;;;10.30;99.90;;;;;;5031899;28;20021;-79
2022/04/26 16:57:19;;;;;;;3.42;2.30;;;10.40;99.90;;;;;;5032657;28;20050;-79
2022/04/26 16:59:44;;;;;;;4.38;2.10;;;10.30;99.90;;;;;;5030822;28;20115;-80
2022/04/26 17:02:10;;;;;;;3.00;2.28;;;10.30;99.90;;;;;;5032250;28;20033;-79
2022/04/26 17:04:37;;;;;;;2.65;1.80;;;10.10;99.90;;;;;;5032507;28;20119;-79
2022/04/26 17:07:02;;;;;;;2.33;1.70;;;10.00;99.90;;;;;;5051720;28;20933;-80
2022/04/26 17:09:30;;;;;;;2.90;1.80;;;9.90;99.90;;;;;;5051955;28;20033;-80
2022/04/26 17:11:55;;;;;;;2.53;1.70;;;9.90;99.90;;;;;;5048594;28;20039;-79
2022/04/26 17:14:21;;;;;;;2.33;1.50;;;9.80;99.90;;;;;;5050892;28;20041;-79